createdAt,value
2022-11-30T00:02:59.519Z,23.63
2022-11-30T00:06:24.348Z,24.35
2022-11-30T00:09:45.376Z,22.75
2022-11-30T00:13:07.268Z,23.80
2022-11-30T00:16:30.622Z,23.90
2022-11-30T00:19:52.304Z,21.98
2022-11-30T00:23:15.446Z,22.92
2022-11-30T00:26:38.514Z,19.67
2022-11-30T00:30:01.367Z,21.80
2022-11-30T00:33:21.381Z,22.90
2022-11-30T00:36:24.772Z,22.52
2022-11-30T00:39:48.253Z,20.33
2022-11-30T00:43:24.387Z,20.42
2022-11-30T00:46:51.451Z,19.00
2022-11-30T00:50:14.236Z,19.70
2022-11-30T00:53:37.469Z,18.90
2022-11-30T00:56:54.602Z,19.95
2022-11-30T01:00:18.295Z,20.52
2022-11-30T01:03:40.342Z,21.50
2022-11-30T01:06:43.697Z,22.67
2022-11-30T01:09:47.219Z,22.17
2022-11-30T01:13:00.973Z,22.77
2022-11-30T01:16:29.028Z,22.25
2022-11-30T01:19:49.954Z,22.20
2022-11-30T01:23:11.002Z,22.13
2022-11-30T01:26:32.808Z,22.52
2022-11-30T01:29:53.862Z,22.10
2022-11-30T01:33:15.917Z,21.85
2022-11-30T01:36:38.800Z,21.80
2022-11-30T01:39:48.818Z,19.90
2022-11-30T01:42:57.714Z,20.58
2022-11-30T01:46:27.112Z,19.77
2022-11-30T01:50:08.067Z,20.15
2022-11-30T01:53:17.963Z,20.00
2022-11-30T01:56:27.797Z,20.07
2022-11-30T01:59:38.671Z,19.13
2022-11-30T02:02:55.671Z,19.10
2022-11-30T02:06:00.726Z,18.67
2022-11-30T02:09:03.640Z,18.13
2022-11-30T02:12:12.172Z,18.57
2022-11-30T02:15:28.057Z,19.77
2022-11-30T02:18:55.111Z,19.63
2022-11-30T02:22:12.004Z,19.13
2022-11-30T02:26:16.044Z,19.83
2022-11-30T02:30:27.956Z,18.37
2022-11-30T02:34:00.917Z,18.10
2022-11-30T02:37:06.939Z,17.70
2022-11-30T02:40:25.931Z,18.30
2022-11-30T02:43:55.958Z,18.25
2022-11-30T02:48:05.957Z,17.97
2022-11-30T02:51:43.922Z,17.02
2022-11-30T02:55:06.631Z,18.75
2022-11-30T02:58:29.539Z,18.58
2022-11-30T03:01:47.060Z,17.50
2022-11-30T03:05:03.200Z,18.20
2022-11-30T03:08:16.685Z,17.42
2022-11-30T03:11:20.423Z,15.95
2022-11-30T03:14:26.289Z,17.63
2022-11-30T03:17:29.221Z,16.88
2022-11-30T03:20:33.449Z,16.67
2022-11-30T03:23:46.620Z,16.70
2022-11-30T03:27:07.521Z,16.70
2022-11-30T03:30:17.497Z,16.35
2022-11-30T03:33:26.473Z,16.73
2022-11-30T03:36:30.754Z,16.17
2022-11-30T03:39:37.329Z,16.20
2022-11-30T03:42:53.912Z,16.15
2022-11-30T03:46:11.086Z,15.65
2022-11-30T03:49:26.735Z,14.93
2022-11-30T03:52:34.250Z,14.53
2022-11-30T03:55:50.639Z,14.80
2022-11-30T03:59:12.589Z,16.25
2022-11-30T04:02:33.579Z,14.77
2022-11-30T04:05:49.894Z,14.63
2022-11-30T04:09:13.693Z,14.30
2022-11-30T04:12:40.718Z,14.95
2022-11-30T04:16:06.599Z,14.15
2022-11-30T04:19:18.659Z,13.23
2022-11-30T04:22:34.849Z,12.55
2022-11-30T04:26:05.602Z,12.33
2022-11-30T04:29:26.722Z,12.60
2022-11-30T04:32:53.688Z,13.15
2022-11-30T04:36:19.921Z,12.43
2022-11-30T04:39:41.606Z,11.80
2022-11-30T04:43:02.745Z,10.77
2022-11-30T04:46:18.947Z,10.73
2022-11-30T04:49:39.625Z,11.27
2022-11-30T04:53:10.618Z,10.52
2022-11-30T04:56:32.631Z,11.50
2022-11-30T04:59:55.770Z,10.40
2022-11-30T05:03:16.601Z,10.52
2022-11-30T05:06:40.698Z,11.20
2022-11-30T05:10:01.643Z,10.82
2022-11-30T05:13:21.605Z,9.93
2022-11-30T05:16:32.769Z,9.30
2022-11-30T05:19:50.007Z,9.93
2022-11-30T05:22:58.273Z,11.13
2022-11-30T05:26:05.745Z,10.55
2022-11-30T05:29:21.513Z,11.13
2022-11-30T05:32:36.200Z,10.13
2022-11-30T05:36:05.844Z,10.57
2022-11-30T05:39:32.542Z,10.82
2022-11-30T05:42:46.161Z,10.65
2022-11-30T05:46:15.338Z,10.15
2022-11-30T05:49:40.461Z,11.23
2022-11-30T05:53:06.220Z,10.48
2022-11-30T05:56:26.747Z,10.60
2022-11-30T05:59:42.620Z,10.40
2022-11-30T06:03:07.500Z,10.48
2022-11-30T06:06:34.530Z,13.00
2022-11-30T06:09:56.189Z,10.40
2022-11-30T06:13:24.683Z,9.90
2022-11-30T06:16:44.029Z,10.75
2022-11-30T06:20:00.575Z,9.48
2022-11-30T06:23:14.034Z,10.57
2022-11-30T06:26:23.569Z,9.35
2022-11-30T06:29:34.848Z,10.18
2022-11-30T06:32:54.424Z,9.88
2022-11-30T06:35:58.237Z,10.32
2022-11-30T06:39:16.515Z,10.60
2022-11-30T06:42:42.724Z,9.85
2022-11-30T06:46:03.662Z,10.80
2022-11-30T06:49:19.669Z,8.77
2022-11-30T06:52:38.798Z,9.95
2022-11-30T06:57:05.816Z,8.87
2022-11-30T07:00:17.753Z,8.77
2022-11-30T07:03:54.498Z,8.30
2022-11-30T07:07:22.009Z,8.20
2022-11-30T07:10:31.592Z,8.75
2022-11-30T07:13:55.770Z,9.00
2022-11-30T07:17:58.437Z,8.98
2022-11-30T07:21:09.938Z,8.10
2022-11-30T07:29:30.192Z,9.18
2022-11-30T07:32:37.144Z,9.97
2022-11-30T07:36:52.473Z,11.10
2022-11-30T07:40:27.257Z,11.45
2022-11-30T07:44:28.706Z,12.75
2022-11-30T07:47:39.883Z,9.98
2022-11-30T07:51:08.586Z,45.43
2022-11-30T07:54:22.248Z,10.63
2022-11-30T07:57:32.291Z,8.90
2022-11-30T08:00:48.620Z,9.93
2022-11-30T08:03:54.350Z,9.13
2022-11-30T08:07:39.452Z,8.97
2022-11-30T08:11:29.343Z,10.07
2022-11-30T08:20:33.100Z,8.60
2022-11-30T08:23:49.460Z,8.85
2022-11-30T08:27:41.922Z,9.67
2022-11-30T08:35:46.900Z,8.77
2022-11-30T08:39:01.164Z,8.63
2022-11-30T08:42:16.783Z,9.13
2022-11-30T08:50:47.514Z,8.82
2022-11-30T08:53:58.479Z,9.60
2022-11-30T08:57:57.737Z,9.00
2022-11-30T09:01:18.609Z,8.02
2022-11-30T09:04:44.528Z,8.30
2022-11-30T09:08:09.284Z,8.85
2022-11-30T09:22:04.363Z,8.80
2022-11-30T09:25:49.912Z,9.13
2022-11-30T09:29:07.055Z,8.82
2022-11-30T09:32:33.090Z,9.15
2022-11-30T09:36:02.165Z,9.15
2022-11-30T09:39:23.176Z,8.43
2022-11-30T09:43:21.516Z,9.67
2022-11-30T09:51:50.714Z,8.77
2022-11-30T09:55:55.960Z,8.57
2022-11-30T09:59:38.460Z,9.65
2022-11-30T10:02:56.553Z,8.03
2022-11-30T10:06:11.766Z,7.35
2022-11-30T10:09:39.674Z,6.28
2022-11-30T10:13:24.505Z,6.50
2022-11-30T10:17:09.768Z,6.90
2022-11-30T10:20:56.080Z,6.17
2022-11-30T10:24:06.552Z,6.80
2022-11-30T10:28:30.893Z,6.80
2022-11-30T10:32:40.273Z,7.20
2022-11-30T10:35:54.413Z,7.28
2022-11-30T10:39:29.306Z,6.70
2022-11-30T10:43:23.265Z,6.20
2022-11-30T10:47:21.207Z,5.93
2022-11-30T10:50:33.180Z,5.78
2022-11-30T10:53:44.384Z,5.93
2022-11-30T11:01:57.686Z,5.72
2022-11-30T11:05:17.801Z,5.50
2022-11-30T11:18:57.664Z,5.50
2022-11-30T11:27:10.047Z,5.70
2022-11-30T11:31:15.057Z,6.20
2022-11-30T11:39:28.535Z,6.20
2022-11-30T11:42:43.016Z,6.38
2022-11-30T11:46:14.186Z,7.30
2022-11-30T11:49:50.977Z,6.53
2022-11-30T11:53:24.221Z,6.22
2022-11-30T12:01:05.723Z,6.82
2022-11-30T12:05:08.045Z,6.05
2022-11-30T12:09:03.941Z,6.47
2022-11-30T12:12:13.813Z,6.85
2022-11-30T12:15:39.131Z,13.43
2022-11-30T12:19:03.161Z,7.38
2022-11-30T12:22:45.265Z,6.00
2022-11-30T12:32:33.058Z,6.05
2022-11-30T12:36:02.220Z,7.10
2022-11-30T12:39:56.475Z,6.90
2022-11-30T12:48:29.627Z,8.48
2022-11-30T12:57:42.499Z,6.83
2022-11-30T13:07:24.944Z,6.57
2022-11-30T13:10:43.507Z,6.95
2022-11-30T13:13:57.155Z,7.22
2022-11-30T13:17:20.033Z,6.33
2022-11-30T13:20:48.810Z,6.45
2022-11-30T13:24:46.932Z,6.07
2022-11-30T13:29:11.443Z,6.95
2022-11-30T13:33:33.554Z,6.70
2022-11-30T13:37:27.820Z,5.83
2022-11-30T13:40:52.452Z,6.50
2022-11-30T13:49:38.811Z,4.57
2022-11-30T13:53:04.560Z,5.50
2022-11-30T13:56:22.517Z,3.53
2022-11-30T13:59:43.880Z,2.83
2022-11-30T14:03:30.312Z,2.88
2022-11-30T14:07:07.763Z,2.80
2022-11-30T14:10:45.702Z,2.83
2022-11-30T14:19:09.552Z,13.07
2022-11-30T14:22:42.807Z,3.85
2022-11-30T14:26:11.221Z,3.20
2022-11-30T14:29:46.667Z,3.60
2022-11-30T14:33:08.095Z,2.70
2022-11-30T14:36:25.011Z,2.90
2022-11-30T14:39:48.485Z,4.20
2022-11-30T14:43:46.457Z,3.70
2022-11-30T14:46:54.612Z,3.78
2022-11-30T14:50:08.666Z,3.70
2022-11-30T14:53:18.465Z,3.10
2022-11-30T14:56:46.469Z,3.22
2022-11-30T14:59:56.037Z,3.25
2022-11-30T15:03:19.012Z,3.70
2022-11-30T15:06:38.874Z,3.90
2022-11-30T15:09:58.892Z,3.42
2022-11-30T15:13:25.182Z,3.22
2022-11-30T15:16:47.207Z,4.05
2022-11-30T15:20:06.012Z,3.28
2022-11-30T15:23:27.938Z,3.70
2022-11-30T15:26:43.957Z,4.95
2022-11-30T15:30:13.985Z,6.95
2022-11-30T15:33:35.061Z,7.15
2022-11-30T15:36:46.551Z,6.43
2022-11-30T15:40:00.115Z,6.87
2022-11-30T15:43:04.104Z,8.02
2022-11-30T15:46:49.220Z,8.13
2022-11-30T15:50:30.212Z,6.85
2022-11-30T15:53:33.078Z,6.72
2022-11-30T15:57:11.218Z,8.17
2022-11-30T16:00:33.259Z,9.70
2022-11-30T16:03:58.910Z,9.35
2022-11-30T16:07:19.124Z,8.68
2022-11-30T16:10:39.359Z,7.68
2022-11-30T16:13:58.937Z,10.77
2022-11-30T16:17:20.894Z,10.45
2022-11-30T16:20:40.857Z,10.85
2022-11-30T16:24:00.845Z,10.52
2022-11-30T16:27:23.977Z,9.23
2022-11-30T16:30:39.833Z,8.57
2022-11-30T16:34:02.757Z,9.25
2022-11-30T16:37:23.576Z,10.25
2022-11-30T16:40:44.796Z,9.90
2022-11-30T16:43:54.569Z,10.23
2022-11-30T16:46:57.958Z,8.63
2022-11-30T16:50:14.909Z,8.32
2022-11-30T16:53:40.463Z,8.70
2022-11-30T16:57:02.923Z,8.70
2022-11-30T17:00:26.742Z,9.60
2022-11-30T17:03:35.131Z,8.43
2022-11-30T17:06:47.013Z,9.43
2022-11-30T17:09:54.982Z,9.65
2022-11-30T17:12:58.112Z,9.60
2022-11-30T17:16:17.425Z,10.02
2022-11-30T17:19:47.734Z,9.63
2022-11-30T17:23:09.544Z,10.15
2022-11-30T17:26:33.136Z,10.10
2022-11-30T17:29:49.663Z,9.80
2022-11-30T17:32:59.835Z,11.38
2022-11-30T17:36:05.890Z,10.57
2022-11-30T17:39:29.642Z,12.20
2022-11-30T17:43:08.294Z,14.20
2022-11-30T17:46:26.496Z,74.13
2022-11-30T17:49:43.773Z,14.00
2022-11-30T17:53:17.973Z,12.83
2022-11-30T17:56:35.909Z,13.85
2022-11-30T17:59:57.630Z,14.57
2022-11-30T18:03:20.580Z,13.30
2022-11-30T18:06:38.751Z,41.20
2022-11-30T18:09:55.726Z,28.00
2022-11-30T18:13:20.531Z,42.50
2022-11-30T18:16:46.743Z,29.98
2022-11-30T18:20:06.698Z,24.70
2022-11-30T18:23:10.010Z,36.95
2022-11-30T18:26:20.315Z,37.30
2022-11-30T18:29:34.606Z,26.85
2022-11-30T18:32:55.299Z,21.60
2022-11-30T18:36:17.666Z,16.95
2022-11-30T18:39:33.650Z,14.70
2022-11-30T18:42:59.117Z,14.97
2022-11-30T18:46:10.224Z,14.48
2022-11-30T18:49:21.261Z,15.00
2022-11-30T18:52:44.385Z,15.50
2022-11-30T18:56:25.493Z,14.60
2022-11-30T18:59:39.221Z,13.90
2022-11-30T19:03:03.679Z,14.00
2022-11-30T19:06:19.948Z,15.35
2022-11-30T19:09:42.516Z,17.38
2022-11-30T19:13:18.471Z,16.55
2022-11-30T19:16:40.523Z,15.97
2022-11-30T19:19:56.708Z,17.63
2022-11-30T19:23:13.384Z,29.98
2022-11-30T19:26:48.429Z,19.20
2022-11-30T19:30:10.182Z,17.55
2022-11-30T19:33:33.369Z,17.87
2022-11-30T19:36:56.308Z,17.35
2022-11-30T19:40:21.444Z,17.63
2022-11-30T19:43:45.283Z,20.33
2022-11-30T19:47:04.321Z,19.40
2022-11-30T19:50:26.386Z,18.00
2022-11-30T19:53:42.498Z,18.13
2022-11-30T19:57:04.329Z,17.38
2022-11-30T20:00:32.401Z,18.75
2022-11-30T20:03:55.262Z,18.15
2022-11-30T20:07:17.257Z,17.90
2022-11-30T20:10:39.250Z,18.77
2022-11-30T20:14:02.416Z,18.42
2022-11-30T20:17:23.319Z,18.25
2022-11-30T20:20:46.258Z,19.33
2022-11-30T20:24:08.219Z,17.70
2022-11-30T20:27:25.428Z,16.98
2022-11-30T20:30:45.329Z,16.88
2022-11-30T20:34:12.293Z,16.83
2022-11-30T20:37:36.381Z,17.38
2022-11-30T20:40:40.119Z,17.87
2022-11-30T20:43:47.544Z,17.45
2022-11-30T20:46:55.394Z,18.40
2022-11-30T20:50:13.173Z,37.45
2022-11-30T20:53:26.752Z,19.75
2022-11-30T20:56:37.460Z,21.87
2022-11-30T20:59:41.428Z,21.70
2022-11-30T21:02:49.466Z,22.65
2022-11-30T21:06:02.898Z,23.40
2022-11-30T21:09:21.314Z,21.95
2022-11-30T21:12:28.363Z,21.90
2022-11-30T21:15:31.658Z,23.65
2022-11-30T21:18:52.345Z,23.70
2022-11-30T21:22:07.679Z,22.38
2022-11-30T21:25:16.707Z,23.98
2022-11-30T21:28:26.461Z,23.77
2022-11-30T21:31:36.685Z,24.13
2022-11-30T21:34:43.703Z,25.05
2022-11-30T21:37:47.519Z,23.63
2022-11-30T21:40:56.139Z,23.77
2022-11-30T21:44:14.248Z,23.40
2022-11-30T21:47:38.201Z,22.63
2022-11-30T21:51:09.018Z,24.20
2022-11-30T21:54:24.078Z,21.63
2022-11-30T21:57:46.074Z,22.45
2022-11-30T22:01:09.127Z,23.03
2022-11-30T22:04:31.077Z,22.77
2022-11-30T22:07:53.131Z,22.52
2022-11-30T22:11:15.883Z,22.63
2022-11-30T22:14:39.023Z,24.02
2022-11-30T22:17:55.215Z,23.57
2022-11-30T22:21:22.960Z,24.00
2022-11-30T22:24:46.105Z,23.83
2022-11-30T22:28:06.017Z,24.17
2022-11-30T22:31:29.045Z,25.27
2022-11-30T22:34:51.919Z,25.10
2022-11-30T22:38:16.071Z,24.13
2022-11-30T22:41:37.088Z,23.92
2022-11-30T22:44:54.084Z,24.98
2022-11-30T22:48:12.951Z,26.83
2022-11-30T22:51:35.087Z,27.77
2022-11-30T22:54:53.953Z,26.67
2022-11-30T22:58:17.991Z,25.23
2022-11-30T23:01:41.984Z,23.77
2022-11-30T23:04:57.999Z,23.55
2022-11-30T23:08:03.744Z,21.80
2022-11-30T23:11:17.164Z,22.58
2022-11-30T23:14:31.633Z,21.67
2022-11-30T23:17:52.679Z,21.20
2022-11-30T23:20:57.732Z,22.23
2022-11-30T23:24:07.474Z,21.20
2022-11-30T23:27:20.252Z,22.27
2022-11-30T23:30:31.472Z,21.98
2022-11-30T23:33:41.831Z,22.40
2022-11-30T23:36:54.940Z,23.08
2022-11-30T23:40:10.451Z,21.90
2022-11-30T23:43:13.978Z,21.55
2022-11-30T23:46:33.097Z,19.33
2022-11-30T23:49:54.539Z,15.93
2022-11-30T23:53:20.422Z,13.82
2022-11-30T23:56:36.893Z,13.83
2022-11-30T23:59:56.721Z,13.07
